createdAt,value
2019-03-16T00:00:02.826Z,99.90
2019-03-16T00:02:33.096Z,99.90
2019-03-16T00:05:01.518Z,99.90
2019-03-16T00:07:33.232Z,99.90
2019-03-16T00:10:01.146Z,99.90
2019-03-16T00:12:29.695Z,99.90
2019-03-16T00:14:58.172Z,99.90
2019-03-16T00:17:26.961Z,99.90
2019-03-16T00:19:55.362Z,99.90
2019-03-16T00:22:23.770Z,99.90
2019-03-16T00:24:52.190Z,99.90
2019-03-16T00:27:20.771Z,99.90
2019-03-16T00:29:49.270Z,99.90
2019-03-16T00:32:17.794Z,99.90
2019-03-16T00:34:46.287Z,99.90
2019-03-16T00:37:14.804Z,99.90
2019-03-16T00:39:43.341Z,99.90
2019-03-16T00:42:11.848Z,99.90
2019-03-16T00:44:42.119Z,99.90
2019-03-16T00:47:10.757Z,99.90
2019-03-16T00:49:39.414Z,99.90
2019-03-16T00:52:07.883Z,99.90
2019-03-16T00:54:36.422Z,99.90
2019-03-16T00:57:04.901Z,99.90
2019-03-16T00:59:33.418Z,99.90
2019-03-16T01:02:03.654Z,99.90
2019-03-16T01:04:32.045Z,99.90
2019-03-16T01:07:01.490Z,99.90
2019-03-16T01:09:29.996Z,99.90
2019-03-16T01:11:58.902Z,99.90
2019-03-16T01:14:27.322Z,99.90
2019-03-16T01:16:55.915Z,99.90
2019-03-16T01:19:24.305Z,99.90
2019-03-16T01:21:52.730Z,99.90
2019-03-16T01:24:21.152Z,99.90
2019-03-16T01:26:49.760Z,99.90
2019-03-16T01:29:18.167Z,99.90
2019-03-16T01:31:46.657Z,99.90
2019-03-16T01:34:15.219Z,99.90
2019-03-16T01:36:43.714Z,99.90
2019-03-16T01:39:12.213Z,99.90
2019-03-16T01:41:42.456Z,99.90
2019-03-16T01:44:11.146Z,99.90
2019-03-16T01:46:39.642Z,99.90
2019-03-16T01:49:08.050Z,99.90
2019-03-16T01:51:38.247Z,99.90
2019-03-16T01:54:06.668Z,99.90
2019-03-16T01:56:35.275Z,99.90
2019-03-16T01:59:03.994Z,99.90
2019-03-16T02:01:34.215Z,99.90
2019-03-16T02:04:02.729Z,99.90
2019-03-16T02:06:31.178Z,99.90
2019-03-16T02:08:59.587Z,99.90
2019-03-16T02:11:28.150Z,99.90
2019-03-16T02:13:56.639Z,99.90
2019-03-16T02:16:25.223Z,99.90
2019-03-16T02:18:53.737Z,99.90
2019-03-16T02:21:22.149Z,99.90
2019-03-16T02:23:51.592Z,99.90
2019-03-16T02:26:20.052Z,99.90
2019-03-16T02:28:49.031Z,99.90
2019-03-16T02:31:17.424Z,99.90
2019-03-16T02:33:45.972Z,99.90
2019-03-16T02:36:14.413Z,99.90
2019-03-16T02:38:42.909Z,99.90
2019-03-16T02:41:11.336Z,99.90
2019-03-16T02:43:39.869Z,99.90
2019-03-16T02:46:08.263Z,99.90
2019-03-16T02:48:36.678Z,99.90
2019-03-16T02:51:05.063Z,99.90
2019-03-16T02:53:33.586Z,99.90
2019-03-16T02:56:01.984Z,99.90
2019-03-16T02:58:30.545Z,99.90
2019-03-16T03:00:59.068Z,99.90
2019-03-16T03:03:29.588Z,99.90
2019-03-16T03:05:57.826Z,99.90
2019-03-16T03:08:26.294Z,99.90
2019-03-16T03:10:56.511Z,99.90
2019-03-16T03:13:27.854Z,99.90
2019-03-16T03:15:56.262Z,99.90
2019-03-16T03:18:24.718Z,99.90
2019-03-16T03:20:53.252Z,99.90
2019-03-16T03:23:21.656Z,99.90
2019-03-16T03:25:50.043Z,99.90
2019-03-16T03:28:18.652Z,99.90
2019-03-16T03:30:47.035Z,99.90
2019-03-16T03:33:16.252Z,99.90
2019-03-16T03:35:44.735Z,99.90
2019-03-16T03:38:13.372Z,99.90
2019-03-16T03:40:42.086Z,99.90
2019-03-16T03:43:10.797Z,99.90
2019-03-16T03:45:39.267Z,99.90
2019-03-16T03:48:07.782Z,99.90
2019-03-16T03:50:37.315Z,99.90
2019-03-16T03:53:05.920Z,99.90
2019-03-16T03:55:34.537Z,99.90
2019-03-16T03:58:03.136Z,99.90
2019-03-16T04:00:31.745Z,99.90
2019-03-16T04:03:00.171Z,99.90
2019-03-16T04:05:28.683Z,99.90
2019-03-16T04:07:57.110Z,99.90
2019-03-16T04:10:25.637Z,99.90
2019-03-16T04:13:01.564Z,99.90
2019-03-16T04:15:31.007Z,99.90
2019-03-16T04:17:59.591Z,99.90
2019-03-16T04:20:28.092Z,99.90
2019-03-16T04:22:56.508Z,99.90
2019-03-16T04:25:24.932Z,99.90
2019-03-16T04:27:53.966Z,99.90
2019-03-16T04:30:22.353Z,99.90
2019-03-16T04:32:50.877Z,99.90
2019-03-16T04:35:19.263Z,99.90
2019-03-16T04:37:47.813Z,99.90
2019-03-16T04:40:16.243Z,99.90
2019-03-16T04:42:50.363Z,99.90
2019-03-16T04:45:19.442Z,99.90
2019-03-16T04:47:47.986Z,99.90
2019-03-16T04:50:16.401Z,99.90
2019-03-16T04:52:44.884Z,99.90
2019-03-16T04:55:13.302Z,99.90
2019-03-16T04:57:41.758Z,99.90
2019-03-16T05:00:10.391Z,99.90
2019-03-16T05:02:39.702Z,99.90
2019-03-16T05:05:08.161Z,99.90
2019-03-16T05:07:36.827Z,99.90
2019-03-16T05:10:07.244Z,99.90
2019-03-16T05:12:35.717Z,99.90
2019-03-16T05:15:04.859Z,99.90
2019-03-16T05:17:33.564Z,99.90
2019-03-16T05:20:04.012Z,99.90
2019-03-16T05:22:32.523Z,99.90
2019-03-16T05:25:01.020Z,99.90
2019-03-16T05:27:29.783Z,99.90
2019-03-16T05:29:58.750Z,99.90
2019-03-16T05:32:27.262Z,99.90
2019-03-16T05:34:57.898Z,99.90
2019-03-16T05:37:26.496Z,99.90
2019-03-16T05:39:55.000Z,99.90
2019-03-16T05:42:23.529Z,99.90
2019-03-16T05:44:52.273Z,99.90
2019-03-16T05:47:21.272Z,99.90
2019-03-16T05:49:49.744Z,99.90
2019-03-16T05:52:18.262Z,99.90
2019-03-16T05:54:46.830Z,99.90
2019-03-16T05:57:15.351Z,99.90
2019-03-16T05:59:45.547Z,99.90
2019-03-16T06:02:15.788Z,99.90
2019-03-16T06:04:44.291Z,99.90
2019-03-16T06:07:13.859Z,99.90
2019-03-16T06:09:42.288Z,99.90
2019-03-16T06:12:10.848Z,99.90
2019-03-16T06:14:39.288Z,99.90
2019-03-16T06:17:08.308Z,99.90
2019-03-16T06:19:36.694Z,99.90
2019-03-16T06:22:05.208Z,99.90
2019-03-16T06:24:33.717Z,99.90
2019-03-16T06:27:02.167Z,99.90
2019-03-16T06:29:30.650Z,99.90
2019-03-16T06:31:59.577Z,99.90
2019-03-16T06:34:28.288Z,99.90
2019-03-16T06:36:57.060Z,99.90
2019-03-16T06:39:26.472Z,99.90
2019-03-16T06:41:55.017Z,99.90
2019-03-16T06:44:23.481Z,99.90
2019-03-16T06:46:52.646Z,99.90
2019-03-16T06:49:21.349Z,99.90
2019-03-16T06:51:52.170Z,99.90
2019-03-16T06:54:21.991Z,99.90
2019-03-16T06:56:50.512Z,99.90
2019-03-16T06:59:18.931Z,99.90
2019-03-16T07:01:47.542Z,99.90
2019-03-16T07:04:16.162Z,99.90
2019-03-16T07:06:46.818Z,99.90
2019-03-16T07:09:15.754Z,99.90
2019-03-16T07:11:44.334Z,99.90
2019-03-16T07:14:13.046Z,99.90
2019-03-16T07:16:42.375Z,99.90
2019-03-16T07:19:10.889Z,99.90
2019-03-16T07:21:39.619Z,99.90
2019-03-16T07:24:08.146Z,99.90
2019-03-16T07:26:36.792Z,99.90
2019-03-16T07:29:05.344Z,99.90
2019-03-16T07:31:33.924Z,99.90
2019-03-16T07:34:02.839Z,99.90
2019-03-16T07:36:31.538Z,99.90
2019-03-16T07:39:00.229Z,99.90
2019-03-16T07:41:29.045Z,99.90
2019-03-16T07:44:01.800Z,99.90
2019-03-16T07:46:30.771Z,99.90
2019-03-16T07:48:59.316Z,99.90
2019-03-16T07:51:29.312Z,99.90
2019-03-16T07:53:57.827Z,99.90
2019-03-16T07:56:26.635Z,99.90
2019-03-16T07:58:56.964Z,99.90
2019-03-16T08:01:25.660Z,99.90
2019-03-16T08:03:55.871Z,99.90
2019-03-16T08:06:25.022Z,99.90
2019-03-16T08:08:53.466Z,99.90
2019-03-16T08:11:21.970Z,99.90
2019-03-16T08:13:51.389Z,99.90
2019-03-16T08:16:19.945Z,99.90
2019-03-16T08:18:48.565Z,99.90
2019-03-16T08:21:17.409Z,99.90
2019-03-16T08:23:47.757Z,99.90
2019-03-16T08:26:18.071Z,99.90
2019-03-16T08:28:46.626Z,99.90
2019-03-16T08:31:15.207Z,99.90
2019-03-16T08:33:44.627Z,99.90
2019-03-16T08:36:13.762Z,99.90
2019-03-16T08:38:42.356Z,99.90
2019-03-16T08:41:10.944Z,99.90
2019-03-16T08:43:40.380Z,99.90
2019-03-16T08:46:09.146Z,99.90
2019-03-16T08:48:37.675Z,99.90
2019-03-16T08:51:06.227Z,99.90
2019-03-16T08:53:34.690Z,99.90
2019-03-16T08:56:04.210Z,99.90
2019-03-16T08:58:34.705Z,99.90
2019-03-16T09:01:03.957Z,99.90
2019-03-16T09:03:43.114Z,99.90
2019-03-16T09:06:05.583Z,99.90
2019-03-16T09:08:34.479Z,99.90
2019-03-16T09:11:03.167Z,99.90
2019-03-16T09:13:31.725Z,99.90
2019-03-16T09:16:00.320Z,99.90
2019-03-16T09:18:28.963Z,99.90
2019-03-16T09:20:57.496Z,99.90
2019-03-16T09:23:25.939Z,99.90
2019-03-16T09:25:56.064Z,99.90
2019-03-16T09:28:24.631Z,99.90
2019-03-16T09:30:56.410Z,99.90
2019-03-16T09:33:24.120Z,99.90
2019-03-16T09:35:53.145Z,99.90
2019-03-16T09:38:21.988Z,99.90
2019-03-16T09:40:50.584Z,99.90
2019-03-16T09:43:19.225Z,99.90
2019-03-16T09:45:49.489Z,99.90
2019-03-16T09:48:18.039Z,99.90
2019-03-16T09:50:47.021Z,99.90
2019-03-16T09:53:15.945Z,99.90
2019-03-16T09:55:44.590Z,99.90
2019-03-16T09:58:13.375Z,99.90
2019-03-16T10:00:41.942Z,99.90
2019-03-16T10:03:10.557Z,99.90
2019-03-16T10:05:39.169Z,99.90
2019-03-16T10:08:07.661Z,99.90
2019-03-16T10:10:36.484Z,99.90
2019-03-16T10:13:09.388Z,99.90
2019-03-16T10:15:40.171Z,99.90
2019-03-16T10:18:08.696Z,99.90
2019-03-16T10:20:37.309Z,99.90
2019-03-16T10:23:05.921Z,99.90
2019-03-16T10:25:34.321Z,99.90
2019-03-16T10:28:03.033Z,99.90
2019-03-16T10:30:31.559Z,99.90
2019-03-16T10:33:00.371Z,99.90
2019-03-16T10:35:29.288Z,99.90
2019-03-16T10:37:57.965Z,99.90
2019-03-16T10:40:26.995Z,99.90
2019-03-16T10:43:04.131Z,99.90
2019-03-16T10:45:32.743Z,99.90
2019-03-16T10:48:01.178Z,99.90
2019-03-16T10:50:30.016Z,99.90
2019-03-16T10:52:58.634Z,99.90
2019-03-16T10:55:27.340Z,99.90
2019-03-16T10:57:57.758Z,99.90
2019-03-16T11:00:26.548Z,99.90
2019-03-16T11:02:55.213Z,99.90
2019-03-16T11:05:24.320Z,99.90
2019-03-16T11:07:53.371Z,99.90
2019-03-16T11:10:24.188Z,99.90
2019-03-16T11:12:53.114Z,99.90
2019-03-16T11:15:22.051Z,99.90
2019-03-16T11:17:50.792Z,99.90
2019-03-16T11:20:19.477Z,99.90
2019-03-16T11:22:48.137Z,99.90
2019-03-16T11:25:16.723Z,99.90
2019-03-16T11:27:45.236Z,99.90
2019-03-16T11:30:15.672Z,99.90
2019-03-16T11:32:44.339Z,99.90
2019-03-16T11:35:12.814Z,99.90
2019-03-16T11:37:43.107Z,99.90
2019-03-16T11:40:13.023Z,99.90
2019-03-16T11:42:41.841Z,99.90
2019-03-16T11:45:10.977Z,99.90
2019-03-16T11:47:41.368Z,99.90
2019-03-16T11:50:10.364Z,99.90
2019-03-16T11:52:39.039Z,99.90
2019-03-16T11:55:09.368Z,99.90
2019-03-16T11:57:38.352Z,99.90
2019-03-16T12:00:08.036Z,99.90
2019-03-16T12:02:39.514Z,99.90
2019-03-16T12:05:08.922Z,99.90
2019-03-16T12:07:37.598Z,99.90
2019-03-16T12:10:07.701Z,99.90
2019-03-16T12:12:36.507Z,99.90
2019-03-16T12:15:06.472Z,99.90
2019-03-16T12:17:35.155Z,99.90
2019-03-16T12:20:05.514Z,99.90
2019-03-16T12:22:34.104Z,99.90
2019-03-16T12:25:04.629Z,99.90
2019-03-16T12:27:33.304Z,99.90
2019-03-16T12:30:05.620Z,99.90
2019-03-16T12:32:35.903Z,99.90
2019-03-16T12:35:05.569Z,99.90
2019-03-16T12:37:34.196Z,99.90
2019-03-16T12:40:05.235Z,99.90
2019-03-16T12:42:33.996Z,99.90
2019-03-16T12:45:02.785Z,99.90
2019-03-16T12:47:33.741Z,99.90
2019-03-16T12:50:02.509Z,99.90
2019-03-16T12:52:35.276Z,99.70
2019-03-16T12:55:03.863Z,99.90
2019-03-16T12:57:32.691Z,99.90
2019-03-16T13:00:01.320Z,99.20
2019-03-16T13:02:30.179Z,99.10
2019-03-16T13:04:58.814Z,98.90
2019-03-16T13:07:27.454Z,97.80
2019-03-16T13:09:55.877Z,97.60
2019-03-16T13:12:25.590Z,98.00
2019-03-16T13:14:53.982Z,98.20
2019-03-16T13:17:22.495Z,98.20
2019-03-16T13:19:51.036Z,99.10
2019-03-16T13:22:19.948Z,99.40
2019-03-16T13:24:48.586Z,99.70
2019-03-16T13:27:17.187Z,99.90
2019-03-16T13:29:45.598Z,99.40
2019-03-16T13:32:14.200Z,98.60
2019-03-16T13:34:43.134Z,98.30
2019-03-16T13:37:11.747Z,98.00
2019-03-16T13:39:40.830Z,97.80
2019-03-16T13:42:09.274Z,97.20
2019-03-16T13:44:38.061Z,98.00
2019-03-16T13:47:26.009Z,97.90
2019-03-16T13:49:56.607Z,98.20
2019-03-16T13:52:25.326Z,98.30
2019-03-16T13:54:54.177Z,98.60
2019-03-16T13:57:25.212Z,99.20
2019-03-16T13:59:55.455Z,98.30
2019-03-16T14:02:23.960Z,97.90
2019-03-16T14:04:54.402Z,98.70
2019-03-16T14:07:23.406Z,98.80
2019-03-16T14:09:53.424Z,98.80
2019-03-16T14:12:22.116Z,98.90
2019-03-16T14:14:51.201Z,99.40
2019-03-16T14:17:20.132Z,99.10
2019-03-16T14:19:48.763Z,99.60
2019-03-16T14:22:17.721Z,99.30
2019-03-16T14:24:46.462Z,98.30
2019-03-16T14:27:16.295Z,98.50
2019-03-16T14:29:45.378Z,98.70
2019-03-16T14:32:14.375Z,99.10
2019-03-16T14:34:43.301Z,99.00
2019-03-16T14:37:12.043Z,99.30
2019-03-16T14:39:42.530Z,99.10
2019-03-16T14:42:13.146Z,99.50
2019-03-16T14:44:43.370Z,99.60
2019-03-16T14:47:12.625Z,99.70
2019-03-16T14:49:43.266Z,99.70
2019-03-16T14:52:11.828Z,99.80
2019-03-16T14:54:40.714Z,99.60
2019-03-16T14:57:09.436Z,99.60
2019-03-16T14:59:37.994Z,99.60
2019-03-16T15:02:06.669Z,99.90
2019-03-16T15:04:35.268Z,99.90
2019-03-16T15:07:03.925Z,99.90
2019-03-16T15:09:32.494Z,99.90
2019-03-16T15:12:02.075Z,99.90
2019-03-16T15:14:30.619Z,99.90
2019-03-16T15:16:59.612Z,99.90
2019-03-16T15:19:31.476Z,99.90
2019-03-16T15:22:01.607Z,99.90
2019-03-16T15:24:30.572Z,99.90
2019-03-16T15:26:59.650Z,99.90
2019-03-16T15:29:31.313Z,99.90
2019-03-16T15:31:59.356Z,99.90
2019-03-16T15:34:28.265Z,99.90
2019-03-16T15:36:56.864Z,99.90
2019-03-16T15:39:25.788Z,99.90
2019-03-16T15:41:54.619Z,99.90
2019-03-16T15:44:23.667Z,99.90
2019-03-16T15:46:52.203Z,99.90
2019-03-16T15:49:21.196Z,99.90
2019-03-16T15:51:49.901Z,99.90
2019-03-16T15:54:18.643Z,99.90
2019-03-16T15:56:48.293Z,99.90
2019-03-16T15:59:17.106Z,99.90
2019-03-16T16:01:45.664Z,99.90
2019-03-16T16:04:14.589Z,99.90
2019-03-16T16:06:43.164Z,99.90
2019-03-16T16:09:11.700Z,99.90
2019-03-16T16:11:42.187Z,99.90
2019-03-16T16:14:11.760Z,99.90
2019-03-16T16:16:40.397Z,99.90
2019-03-16T16:19:09.191Z,99.90
2019-03-16T16:21:37.612Z,99.90
2019-03-16T16:24:06.618Z,99.90
2019-03-16T16:26:35.388Z,99.90
2019-03-16T16:29:04.356Z,99.90
2019-03-16T16:31:33.617Z,99.90
2019-03-16T16:34:03.071Z,99.90
2019-03-16T16:36:32.743Z,99.90
2019-03-16T16:39:01.307Z,99.90
2019-03-16T16:41:29.826Z,99.90
2019-03-16T16:43:58.643Z,99.90
2019-03-16T16:46:28.461Z,99.90
2019-03-16T16:48:59.104Z,99.90
2019-03-16T16:51:27.842Z,99.90
2019-03-16T16:53:56.283Z,99.90
2019-03-16T16:56:26.632Z,99.90
2019-03-16T16:58:55.269Z,99.90
2019-03-16T17:01:29.627Z,99.90
2019-03-16T17:03:55.712Z,99.90
2019-03-16T17:06:24.121Z,99.90
2019-03-16T17:08:52.962Z,99.90
2019-03-16T17:11:21.694Z,99.90
2019-03-16T17:13:50.240Z,99.90
2019-03-16T17:16:18.660Z,99.90
2019-03-16T17:18:49.094Z,99.90
2019-03-16T17:21:17.669Z,99.90
2019-03-16T17:23:48.214Z,99.90
2019-03-16T17:26:16.803Z,99.90
2019-03-16T17:28:45.687Z,99.90
2019-03-16T17:31:14.318Z,99.90
2019-03-16T17:33:45.751Z,99.90
2019-03-16T17:36:14.583Z,99.90
2019-03-16T17:38:43.241Z,99.90
2019-03-16T17:41:11.855Z,99.90
2019-03-16T17:43:40.493Z,99.90
2019-03-16T17:46:09.272Z,99.90
2019-03-16T17:48:39.138Z,99.90
2019-03-16T17:51:07.759Z,99.90
2019-03-16T17:53:36.646Z,99.90
2019-03-16T17:56:07.139Z,99.90
2019-03-16T17:58:35.792Z,99.90
2019-03-16T18:01:04.451Z,99.90
2019-03-16T18:03:32.874Z,99.90
2019-03-16T18:06:01.459Z,99.90
2019-03-16T18:08:30.173Z,99.90
2019-03-16T18:10:58.571Z,99.90
2019-03-16T18:13:32.762Z,99.90
2019-03-16T18:16:01.371Z,99.90
2019-03-16T18:18:30.155Z,99.90
2019-03-16T18:20:58.767Z,99.90
2019-03-16T18:23:27.576Z,99.90
2019-03-16T18:25:56.064Z,99.90
2019-03-16T18:28:24.730Z,99.90
2019-03-16T18:30:54.455Z,99.90
2019-03-16T18:33:23.285Z,99.90
2019-03-16T18:35:52.033Z,99.90
2019-03-16T18:38:20.731Z,99.90
2019-03-16T18:40:49.421Z,99.90
2019-03-16T18:43:19.766Z,99.90
2019-03-16T18:45:48.425Z,99.90
2019-03-16T18:48:17.323Z,99.90
2019-03-16T18:50:47.555Z,99.90
2019-03-16T18:53:16.261Z,99.90
2019-03-16T18:55:44.948Z,99.90
2019-03-16T18:58:15.503Z,99.90
2019-03-16T19:00:45.261Z,99.90
2019-03-16T19:03:14.119Z,99.90
2019-03-16T19:05:42.835Z,99.90
2019-03-16T19:08:11.409Z,99.90
2019-03-16T19:10:40.385Z,99.90
2019-03-16T19:13:08.901Z,99.90
2019-03-16T19:15:37.693Z,99.90
2019-03-16T19:18:06.413Z,99.90
2019-03-16T19:20:35.079Z,99.90
2019-03-16T19:23:05.703Z,99.90
2019-03-16T19:25:36.319Z,99.90
2019-03-16T19:28:05.042Z,99.90
2019-03-16T19:30:33.834Z,99.90
2019-03-16T19:33:02.333Z,99.90
2019-03-16T19:35:30.793Z,99.90
2019-03-16T19:37:59.562Z,99.90
2019-03-16T19:40:28.152Z,99.90
2019-03-16T19:42:57.376Z,99.90
2019-03-16T19:45:27.808Z,99.90
2019-03-16T19:47:56.854Z,99.90
2019-03-16T19:50:25.622Z,99.90
2019-03-16T19:52:55.676Z,99.90
2019-03-16T19:55:24.335Z,99.90
2019-03-16T19:57:52.882Z,99.90
2019-03-16T20:00:23.287Z,99.90
2019-03-16T20:02:52.223Z,99.90
2019-03-16T20:05:22.121Z,99.90
2019-03-16T20:07:51.115Z,99.90
2019-03-16T20:10:21.090Z,99.90
2019-03-16T20:12:52.923Z,99.90
2019-03-16T20:15:23.061Z,99.90
2019-03-16T20:17:51.987Z,99.90
2019-03-16T20:20:20.718Z,99.90
2019-03-16T20:22:50.002Z,99.90
2019-03-16T20:25:18.842Z,99.90
2019-03-16T20:27:48.076Z,99.90
2019-03-16T20:30:26.593Z,99.90
2019-03-16T20:33:02.645Z,99.90
2019-03-16T20:35:19.971Z,99.90
2019-03-16T20:37:48.501Z,99.90
2019-03-16T20:40:18.528Z,99.90
2019-03-16T20:42:50.940Z,99.90
2019-03-16T20:45:20.695Z,99.90
2019-03-16T20:47:49.617Z,99.90
2019-03-16T20:50:20.116Z,99.90
2019-03-16T20:52:48.850Z,99.90
2019-03-16T20:55:17.467Z,99.90
2019-03-16T20:57:46.146Z,99.90
2019-03-16T21:00:15.722Z,99.90
2019-03-16T21:02:44.561Z,99.90
2019-03-16T21:05:13.708Z,99.90
2019-03-16T21:07:42.367Z,99.90
2019-03-16T21:10:12.265Z,99.90
2019-03-16T21:12:42.791Z,99.90
2019-03-16T21:15:12.040Z,99.90
2019-03-16T21:17:41.161Z,99.90
2019-03-16T21:20:11.196Z,99.90
2019-03-16T21:22:39.776Z,99.90
2019-03-16T21:25:09.361Z,99.90
2019-03-16T21:27:38.033Z,99.90
2019-03-16T21:30:09.636Z,99.90
2019-03-16T21:32:38.905Z,99.90
2019-03-16T21:35:07.837Z,99.90
2019-03-16T21:37:36.578Z,99.90
2019-03-16T21:40:05.696Z,99.90
2019-03-16T21:42:34.515Z,99.90
2019-03-16T21:45:03.751Z,99.90
2019-03-16T21:47:32.389Z,99.90
2019-03-16T21:50:01.153Z,99.90
2019-03-16T21:52:29.889Z,99.90
2019-03-16T21:55:00.362Z,99.90
2019-03-16T21:57:29.661Z,99.90
2019-03-16T21:59:58.703Z,99.90
2019-03-16T22:02:27.395Z,99.90
2019-03-16T22:04:55.827Z,99.90
2019-03-16T22:07:24.428Z,99.90
2019-03-16T22:09:52.818Z,99.90
2019-03-16T22:12:21.358Z,99.90
2019-03-16T22:14:49.850Z,99.90
2019-03-16T22:17:18.389Z,99.90
2019-03-16T22:19:46.934Z,99.90
2019-03-16T22:22:15.466Z,99.90
2019-03-16T22:24:43.870Z,99.90
2019-03-16T22:27:12.463Z,99.90
2019-03-16T22:29:40.890Z,99.90
2019-03-16T22:32:09.567Z,99.90
2019-03-16T22:34:38.347Z,99.90
2019-03-16T22:37:08.329Z,99.90
2019-03-16T22:39:36.839Z,99.90
2019-03-16T22:42:05.577Z,99.90
2019-03-16T22:44:34.215Z,99.90
2019-03-16T22:47:03.121Z,99.90
2019-03-16T22:49:31.542Z,99.90
2019-03-16T22:52:01.864Z,99.90
2019-03-16T22:54:30.467Z,99.90
2019-03-16T22:56:59.416Z,99.90
2019-03-16T22:59:28.264Z,99.90
2019-03-16T23:01:57.061Z,99.90
2019-03-16T23:04:34.922Z,99.90
2019-03-16T23:07:13.479Z,99.90
2019-03-16T23:09:53.115Z,99.90
2019-03-16T23:12:32.400Z,99.90
2019-03-16T23:15:11.578Z,99.90
2019-03-16T23:17:42.300Z,99.90
2019-03-16T23:20:11.879Z,99.90
2019-03-16T23:22:40.442Z,99.90
2019-03-16T23:25:09.180Z,99.90
2019-03-16T23:27:38.011Z,99.90
2019-03-16T23:30:08.307Z,99.90
2019-03-16T23:32:38.262Z,99.90
2019-03-16T23:35:07.501Z,99.90
2019-03-16T23:37:36.408Z,99.90
2019-03-16T23:40:07.296Z,99.90
2019-03-16T23:42:36.003Z,99.90
2019-03-16T23:45:04.988Z,99.90
2019-03-16T23:47:33.672Z,99.90
2019-03-16T23:50:02.363Z,99.90
2019-03-16T23:52:30.972Z,99.90
2019-03-16T23:54:59.793Z,99.90
2019-03-16T23:57:31.732Z,99.90
